Olympia, WA

11:06 PM PDT on July 03, 2015 (GMT -0700)
East Olympia | | Change Station
CLOSE
Current Station
Personal Weather Station
Location: Olympia, WA
Elevation: 164 ft
Nearby Weather Stations
Active Advisory: Special Statement Active Notice: Record Report

Elev 164 ft 46.99 °N, 122.87 °W | Updated 7 minutes ago

Clear
Clear
67.9 °F
Feels Like 67.9 °F
N
0.0
Wind Variable Wind from SW
Gusts 0.0 mph

Today
High -- | Low -- °F
--% Chance of Precip.
Yesterday
High -- | Low -- °F
Precip. -- in
5:21 AM 9:09 PM
Waning Gibbous, 94% visible
Pressure 29.89 in
Visibility 10.0 miles
Clouds Clear
Dew Point 55 °F
Humidity 64%
Rainfall 0.00 in
Snow Depth Not available.
UV 0.0 out of 12
Pollen 6.20 out of 12
Air Quality Not available.
Flu Activity Not available.
METAR KOLM 040554Z AUTO 17006KT 10SM CLR 19/12 A2989 RMK AO2 SLP122 T01940122 10339 20194 53017

More Conditions Fewer Conditions

Pressure 29.89 in
Visibility 10.0 miles
Clouds Clear
Dew Point 55 °F
Humidity 64%
Rainfall 0.00 in
Snow Depth Not available.
UV 0.0 out of 12
Pollen 6.20 out of 12
Air Quality Not available.
Flu Activity Not available.
METAR KOLM 040554Z AUTO 17006KT 10SM CLR 19/12 A2989 RMK AO2 SLP122 T01940122 10339 20194 53017

More Conditions Fewer Conditions

10-Day Weather Forecast

×

Almanac

Astronomy

Jul. 03, 2015 Rise Set
Actual Time
Civil Twilight
Nautical Twilight
Astronomical Twilight
Moon
Length of Visible Light
Length of Day
Tomorrow will be .
, % of the Moon is Illuminated

Today's Extremes

State Highs State Lows

Community

WunderPhotos

Upload Photos

1,834,926 photos uploaded!

WunderBlogs® & News

Nearby

Air Quality

  Air Quality AQ Index Pollutant
Not available.

Snow Depth

Station Depth Elevation

Earthquake Activity

City Distance Mag. Time & Date
Minimum magnitude displayed is 2.5.

Coastal Water Temperatures

Place Temperature

Stations

Nearby Weather Stations

Station Location Temp. Windchill Dew Point Humidity Wind Precip. Elev Updated Type
                   
Special Statement
Statement as of 2:38 PM PDT on July 03, 2015

... Hot weather for the Holiday weekend for western Washington... .

High temperatures will continue to be well above normal through
the weekend. On Saturday temperatures will again be in the 80s and
lower 90s for much of the area... with the coast in the 70s. On
Sunday the coast will warm well into the 80s and inland areas
could reach the mid 90s.

The recent warm dry weather has lead areas of tall grass drying
out early this Summer. Fireworks are banned in a number of
communities and for the most part campfires are banned as well.

Cooler cloudier weather may develop toward the end of next week.


Www.Weather.Gov/Seattle